sensor_id;sensor_type;location;lat;lon;timestamp;temperature;humidity
11838;DHT22;5978;51.020;6.764;2023-02-24T00:01:57;8.00;99.90
11838;DHT22;5978;51.020;6.764;2023-02-24T00:04:46;7.90;99.90
11838;DHT22;5978;51.020;6.764;2023-02-24T00:07:16;7.80;99.90
11838;DHT22;5978;51.020;6.764;2023-02-24T00:09:42;7.80;99.90
11838;DHT22;5978;51.020;6.764;2023-02-24T00:12:13;7.70;99.90
11838;DHT22;5978;51.020;6.764;2023-02-24T00:14:41;7.70;99.90
11838;DHT22;5978;51.020;6.764;2023-02-24T00:17:07;7.60;99.90
11838;DHT22;5978;51.020;6.764;2023-02-24T00:19:33;7.60;99.90
11838;DHT22;5978;51.020;6.764;2023-02-24T00:22:00;7.50;99.90
11838;DHT22;5978;51.020;6.764;2023-02-24T00:24:27;7.50;99.90
11838;DHT22;5978;51.020;6.764;2023-02-24T00:26:54;7.50;99.90
11838;DHT22;5978;51.020;6.764;2023-02-24T00:29:20;7.40;99.90
11838;DHT22;5978;51.020;6.764;2023-02-24T00:31:49;7.40;99.90
11838;DHT22;5978;51.020;6.764;2023-02-24T00:34:21;7.40;99.90
11838;DHT22;5978;51.020;6.764;2023-02-24T00:36:47;7.40;99.90
11838;DHT22;5978;51.020;6.764;2023-02-24T00:39:13;7.50;99.90
11838;DHT22;5978;51.020;6.764;2023-02-24T00:41:41;7.40;99.90
11838;DHT22;5978;51.020;6.764;2023-02-24T00:44:08;7.50;99.90
11838;DHT22;5978;51.020;6.764;2023-02-24T00:46:36;7.50;99.90
11838;DHT22;5978;51.020;6.764;2023-02-24T00:49:04;7.40;99.90
11838;DHT22;5978;51.020;6.764;2023-02-24T00:51:35;7.50;99.90
11838;DHT22;5978;51.020;6.764;2023-02-24T00:54:01;7.50;99.90
11838;DHT22;5978;51.020;6.764;2023-02-24T00:56:28;7.40;99.90
11838;DHT22;5978;51.020;6.764;2023-02-24T00:58:56;7.40;99.90
11838;DHT22;5978;51.020;6.764;2023-02-24T01:01:24;7.40;99.90
11838;DHT22;5978;51.020;6.764;2023-02-24T01:03:51;7.40;99.90
11838;DHT22;5978;51.020;6.764;2023-02-24T01:06:22;7.40;99.90
11838;DHT22;5978;51.020;6.764;2023-02-24T01:08:50;7.50;99.90
11838;DHT22;5978;51.020;6.764;2023-02-24T01:11:18;7.40;99.90
11838;DHT22;5978;51.020;6.764;2023-02-24T01:14:12;7.30;99.90
11838;DHT22;5978;51.020;6.764;2023-02-24T01:16:38;7.30;99.90
11838;DHT22;5978;51.020;6.764;2023-02-24T01:19:06;7.30;99.90
11838;DHT22;5978;51.020;6.764;2023-02-24T01:21:32;7.20;99.90
11838;DHT22;5978;51.020;6.764;2023-02-24T01:23:58;7.20;99.90
11838;DHT22;5978;51.020;6.764;2023-02-24T01:26:24;7.20;99.90
11838;DHT22;5978;51.020;6.764;2023-02-24T01:28:51;7.30;99.90
11838;DHT22;5978;51.020;6.764;2023-02-24T01:31:18;7.20;99.90
11838;DHT22;5978;51.020;6.764;2023-02-24T01:33:48;7.20;99.90
11838;DHT22;5978;51.020;6.764;2023-02-24T01:38:40;7.20;99.90
11838;DHT22;5978;51.020;6.764;2023-02-24T01:41:11;7.20;99.90
11838;DHT22;5978;51.020;6.764;2023-02-24T01:46:18;7.20;99.90
11838;DHT22;5978;51.020;6.764;2023-02-24T01:48:48;7.30;99.90
11838;DHT22;5978;51.020;6.764;2023-02-24T01:51:15;7.20;99.90
11838;DHT22;5978;51.020;6.764;2023-02-24T01:53:41;7.20;99.90
11838;DHT22;5978;51.020;6.764;2023-02-24T01:56:07;7.20;99.90
11838;DHT22;5978;51.020;6.764;2023-02-24T01:58:32;7.20;99.90
11838;DHT22;5978;51.020;6.764;2023-02-24T02:00:58;7.20;99.90
11838;DHT22;5978;51.020;6.764;2023-02-24T02:03:33;7.20;99.90
11838;DHT22;5978;51.020;6.764;2023-02-24T02:06:05;7.20;99.90
11838;DHT22;5978;51.020;6.764;2023-02-24T02:08:32;7.20;99.90
11838;DHT22;5978;51.020;6.764;2023-02-24T02:11:07;7.20;99.90
11838;DHT22;5978;51.020;6.764;2023-02-24T02:13:34;7.10;99.90
11838;DHT22;5978;51.020;6.764;2023-02-24T02:16:11;7.10;99.90
11838;DHT22;5978;51.020;6.764;2023-02-24T02:19:08;7.10;99.90
11838;DHT22;5978;51.020;6.764;2023-02-24T02:31:09;6.70;99.90
11838;DHT22;5978;51.020;6.764;2023-02-24T02:44:34;6.50;99.90
11838;DHT22;5978;51.020;6.764;2023-02-24T02:47:21;6.50;99.90
11838;DHT22;5978;51.020;6.764;2023-02-24T02:49:52;6.50;99.90
11838;DHT22;5978;51.020;6.764;2023-02-24T02:52:41;6.40;99.90
11838;DHT22;5978;51.020;6.764;2023-02-24T02:55:17;6.50;99.90
11838;DHT22;5978;51.020;6.764;2023-02-24T02:57:46;6.40;99.90
11838;DHT22;5978;51.020;6.764;2023-02-24T03:00:27;6.50;99.90
11838;DHT22;5978;51.020;6.764;2023-02-24T03:03:11;6.50;99.90
11838;DHT22;5978;51.020;6.764;2023-02-24T03:05:52;6.50;99.90
11838;DHT22;5978;51.020;6.764;2023-02-24T03:08:22;6.40;99.90
11838;DHT22;5978;51.020;6.764;2023-02-24T03:10:51;6.40;99.90
11838;DHT22;5978;51.020;6.764;2023-02-24T03:13:21;6.40;99.90
11838;DHT22;5978;51.020;6.764;2023-02-24T03:15:51;6.50;99.90
11838;DHT22;5978;51.020;6.764;2023-02-24T03:18:27;6.40;99.90
11838;DHT22;5978;51.020;6.764;2023-02-24T03:21:02;6.40;99.90
11838;DHT22;5978;51.020;6.764;2023-02-24T03:23:38;6.40;99.90
11838;DHT22;5978;51.020;6.764;2023-02-24T03:26:46;6.50;99.90
11838;DHT22;5978;51.020;6.764;2023-02-24T03:29:35;6.50;99.90
11838;DHT22;5978;51.020;6.764;2023-02-24T03:32:10;6.50;99.90
11838;DHT22;5978;51.020;6.764;2023-02-24T03:34:55;6.50;99.90
11838;DHT22;5978;51.020;6.764;2023-02-24T03:37:24;6.40;99.90
11838;DHT22;5978;51.020;6.764;2023-02-24T03:40:01;6.40;99.90
11838;DHT22;5978;51.020;6.764;2023-02-24T03:42:38;6.40;99.90
11838;DHT22;5978;51.020;6.764;2023-02-24T03:45:05;6.40;99.90
11838;DHT22;5978;51.020;6.764;2023-02-24T03:47:32;6.40;99.90
11838;DHT22;5978;51.020;6.764;2023-02-24T03:49:58;6.50;99.90
11838;DHT22;5978;51.020;6.764;2023-02-24T03:52:58;6.50;99.90
11838;DHT22;5978;51.020;6.764;2023-02-24T04:00:57;6.40;99.90
11838;DHT22;5978;51.020;6.764;2023-02-24T04:03:36;6.40;99.90
11838;DHT22;5978;51.020;6.764;2023-02-24T04:06:49;6.30;99.90
11838;DHT22;5978;51.020;6.764;2023-02-24T04:11:56;6.30;99.90
11838;DHT22;5978;51.020;6.764;2023-02-24T04:14:33;6.30;99.90
11838;DHT22;5978;51.020;6.764;2023-02-24T04:17:07;6.20;99.90
11838;DHT22;5978;51.020;6.764;2023-02-24T04:19:39;6.20;99.90
11838;DHT22;5978;51.020;6.764;2023-02-24T04:22:07;6.10;99.90
11838;DHT22;5978;51.020;6.764;2023-02-24T04:24:36;6.20;99.90
11838;DHT22;5978;51.020;6.764;2023-02-24T04:27:04;6.10;99.90
11838;DHT22;5978;51.020;6.764;2023-02-24T04:29:35;6.10;99.90
11838;DHT22;5978;51.020;6.764;2023-02-24T04:32:10;6.20;99.90
11838;DHT22;5978;51.020;6.764;2023-02-24T04:34:38;6.20;99.90
11838;DHT22;5978;51.020;6.764;2023-02-24T04:37:04;6.20;99.90
11838;DHT22;5978;51.020;6.764;2023-02-24T04:39:30;6.20;99.90
11838;DHT22;5978;51.020;6.764;2023-02-24T04:41:56;6.20;99.90
11838;DHT22;5978;51.020;6.764;2023-02-24T04:44:22;6.20;99.90
11838;DHT22;5978;51.020;6.764;2023-02-24T04:46:50;6.20;99.90
11838;DHT22;5978;51.020;6.764;2023-02-24T04:49:17;6.10;99.90
11838;DHT22;5978;51.020;6.764;2023-02-24T04:51:44;6.00;99.90
11838;DHT22;5978;51.020;6.764;2023-02-24T04:54:11;6.00;99.90
11838;DHT22;5978;51.020;6.764;2023-02-24T04:56:40;6.00;99.90
11838;DHT22;5978;51.020;6.764;2023-02-24T04:59:06;5.90;99.90
11838;DHT22;5978;51.020;6.764;2023-02-24T05:01:35;5.90;99.90
11838;DHT22;5978;51.020;6.764;2023-02-24T05:04:07;5.80;99.90
11838;DHT22;5978;51.020;6.764;2023-02-24T05:06:34;5.70;99.90
11838;DHT22;5978;51.020;6.764;2023-02-24T05:09:00;5.60;99.90
11838;DHT22;5978;51.020;6.764;2023-02-24T05:11:26;5.60;99.90
11838;DHT22;5978;51.020;6.764;2023-02-24T05:13:59;5.60;99.90
11838;DHT22;5978;51.020;6.764;2023-02-24T05:16:24;5.50;99.90
11838;DHT22;5978;51.020;6.764;2023-02-24T05:18:53;5.60;99.90
11838;DHT22;5978;51.020;6.764;2023-02-24T05:21:39;5.60;99.90
11838;DHT22;5978;51.020;6.764;2023-02-24T05:24:06;5.60;99.90
11838;DHT22;5978;51.020;6.764;2023-02-24T05:26:37;5.60;99.90
11838;DHT22;5978;51.020;6.764;2023-02-24T05:29:06;5.70;99.90
11838;DHT22;5978;51.020;6.764;2023-02-24T05:31:32;5.70;99.90
11838;DHT22;5978;51.020;6.764;2023-02-24T05:34:03;5.70;99.90
11838;DHT22;5978;51.020;6.764;2023-02-24T05:36:35;5.70;99.90
11838;DHT22;5978;51.020;6.764;2023-02-24T05:39:03;5.70;99.90
11838;DHT22;5978;51.020;6.764;2023-02-24T05:41:33;5.60;99.90
11838;DHT22;5978;51.020;6.764;2023-02-24T05:44:02;5.60;99.90
11838;DHT22;5978;51.020;6.764;2023-02-24T05:46:34;5.50;99.90
11838;DHT22;5978;51.020;6.764;2023-02-24T05:49:04;5.50;99.90
11838;DHT22;5978;51.020;6.764;2023-02-24T05:51:34;5.50;99.90
11838;DHT22;5978;51.020;6.764;2023-02-24T05:54:02;5.50;99.90
11838;DHT22;5978;51.020;6.764;2023-02-24T05:56:36;5.50;99.90
11838;DHT22;5978;51.020;6.764;2023-02-24T05:59:05;5.40;99.90
11838;DHT22;5978;51.020;6.764;2023-02-24T06:01:35;5.50;99.90
11838;DHT22;5978;51.020;6.764;2023-02-24T06:04:06;5.50;99.90
11838;DHT22;5978;51.020;6.764;2023-02-24T06:06:36;5.40;99.90
11838;DHT22;5978;51.020;6.764;2023-02-24T06:09:04;5.40;99.90
11838;DHT22;5978;51.020;6.764;2023-02-24T06:11:38;5.40;99.90
11838;DHT22;5978;51.020;6.764;2023-02-24T06:14:05;5.40;99.90
11838;DHT22;5978;51.020;6.764;2023-02-24T06:16:36;5.50;99.90
11838;DHT22;5978;51.020;6.764;2023-02-24T06:19:02;5.50;99.90
11838;DHT22;5978;51.020;6.764;2023-02-24T06:21:29;5.50;99.90
11838;DHT22;5978;51.020;6.764;2023-02-24T06:23:58;5.50;99.90
11838;DHT22;5978;51.020;6.764;2023-02-24T06:26:25;5.50;99.90
11838;DHT22;5978;51.020;6.764;2023-02-24T06:28:55;5.50;99.90
11838;DHT22;5978;51.020;6.764;2023-02-24T06:31:21;5.50;99.90
11838;DHT22;5978;51.020;6.764;2023-02-24T06:33:47;5.50;99.90
11838;DHT22;5978;51.020;6.764;2023-02-24T06:36:13;5.50;99.90
11838;DHT22;5978;51.020;6.764;2023-02-24T06:38:40;5.50;99.90
11838;DHT22;5978;51.020;6.764;2023-02-24T06:41:06;5.50;99.90
11838;DHT22;5978;51.020;6.764;2023-02-24T06:43:42;5.40;99.90
11838;DHT22;5978;51.020;6.764;2023-02-24T06:46:10;5.40;99.90
11838;DHT22;5978;51.020;6.764;2023-02-24T06:48:36;5.40;99.90
11838;DHT22;5978;51.020;6.764;2023-02-24T06:51:09;5.40;99.90
11838;DHT22;5978;51.020;6.764;2023-02-24T06:53:38;5.40;99.90
11838;DHT22;5978;51.020;6.764;2023-02-24T06:56:15;5.40;99.90
11838;DHT22;5978;51.020;6.764;2023-02-24T06:58:48;5.40;99.90
11838;DHT22;5978;51.020;6.764;2023-02-24T07:01:19;5.40;99.90
11838;DHT22;5978;51.020;6.764;2023-02-24T07:03:54;5.40;99.90
11838;DHT22;5978;51.020;6.764;2023-02-24T07:06:26;5.40;99.90
11838;DHT22;5978;51.020;6.764;2023-02-24T07:08:55;5.50;99.90
11838;DHT22;5978;51.020;6.764;2023-02-24T07:11:21;5.50;99.90
11838;DHT22;5978;51.020;6.764;2023-02-24T07:13:48;5.60;99.90
11838;DHT22;5978;51.020;6.764;2023-02-24T07:16:16;5.50;99.90
11838;DHT22;5978;51.020;6.764;2023-02-24T07:18:42;5.50;99.90
11838;DHT22;5978;51.020;6.764;2023-02-24T07:21:09;5.50;99.90
11838;DHT22;5978;51.020;6.764;2023-02-24T07:23:44;5.60;99.90
11838;DHT22;5978;51.020;6.764;2023-02-24T07:26:11;5.60;99.90
11838;DHT22;5978;51.020;6.764;2023-02-24T07:28:39;5.60;99.90
11838;DHT22;5978;51.020;6.764;2023-02-24T07:31:06;5.70;99.90
11838;DHT22;5978;51.020;6.764;2023-02-24T07:33:33;5.70;99.90
11838;DHT22;5978;51.020;6.764;2023-02-24T07:36:02;5.70;99.90
11838;DHT22;5978;51.020;6.764;2023-02-24T07:38:34;5.80;99.90
11838;DHT22;5978;51.020;6.764;2023-02-24T07:41:00;5.80;99.90
11838;DHT22;5978;51.020;6.764;2023-02-24T07:43:26;5.70;99.90
11838;DHT22;5978;51.020;6.764;2023-02-24T07:45:52;5.70;99.90
11838;DHT22;5978;51.020;6.764;2023-02-24T07:48:17;5.80;99.90
11838;DHT22;5978;51.020;6.764;2023-02-24T07:50:43;5.80;99.90
11838;DHT22;5978;51.020;6.764;2023-02-24T07:53:11;5.80;99.90
11838;DHT22;5978;51.020;6.764;2023-02-24T07:55:37;5.80;99.90
11838;DHT22;5978;51.020;6.764;2023-02-24T07:58:04;5.70;99.90
11838;DHT22;5978;51.020;6.764;2023-02-24T08:00:30;5.70;99.90
11838;DHT22;5978;51.020;6.764;2023-02-24T08:03:14;5.80;99.90
11838;DHT22;5978;51.020;6.764;2023-02-24T08:05:39;5.90;99.90
11838;DHT22;5978;51.020;6.764;2023-02-24T08:08:08;6.00;99.90
11838;DHT22;5978;51.020;6.764;2023-02-24T08:10:33;6.00;99.90
11838;DHT22;5978;51.020;6.764;2023-02-24T08:13:01;6.00;99.90
11838;DHT22;5978;51.020;6.764;2023-02-24T08:15:28;6.00;99.90
11838;DHT22;5978;51.020;6.764;2023-02-24T08:17:59;5.90;99.90
11838;DHT22;5978;51.020;6.764;2023-02-24T08:20:26;6.00;99.90
11838;DHT22;5978;51.020;6.764;2023-02-24T08:22:54;6.10;99.90
11838;DHT22;5978;51.020;6.764;2023-02-24T08:25:23;6.20;99.90
11838;DHT22;5978;51.020;6.764;2023-02-24T08:27:51;6.30;99.90
11838;DHT22;5978;51.020;6.764;2023-02-24T08:30:22;6.40;99.90
11838;DHT22;5978;51.020;6.764;2023-02-24T08:32:52;6.40;99.90
11838;DHT22;5978;51.020;6.764;2023-02-24T08:35:28;6.50;99.90
11838;DHT22;5978;51.020;6.764;2023-02-24T08:38:07;6.50;99.90
11838;DHT22;5978;51.020;6.764;2023-02-24T08:40:38;6.40;99.90
11838;DHT22;5978;51.020;6.764;2023-02-24T08:43:22;6.50;99.90
11838;DHT22;5978;51.020;6.764;2023-02-24T08:48:37;6.40;99.90
11838;DHT22;5978;51.020;6.764;2023-02-24T08:51:19;6.40;99.90
11838;DHT22;5978;51.020;6.764;2023-02-24T08:53:48;6.50;99.90
11838;DHT22;5978;51.020;6.764;2023-02-24T08:56:18;6.40;99.90
11838;DHT22;5978;51.020;6.764;2023-02-24T08:58:49;6.40;99.90
11838;DHT22;5978;51.020;6.764;2023-02-24T09:01:29;6.40;99.90
11838;DHT22;5978;51.020;6.764;2023-02-24T09:04:09;6.30;99.90
11838;DHT22;5978;51.020;6.764;2023-02-24T09:06:45;6.30;99.90
11838;DHT22;5978;51.020;6.764;2023-02-24T09:09:13;6.30;99.90
11838;DHT22;5978;51.020;6.764;2023-02-24T09:11:51;6.40;99.90
11838;DHT22;5978;51.020;6.764;2023-02-24T09:14:21;6.50;99.90
11838;DHT22;5978;51.020;6.764;2023-02-24T09:16:49;6.40;99.90
11838;DHT22;5978;51.020;6.764;2023-02-24T09:19:50;6.50;99.90
11838;DHT22;5978;51.020;6.764;2023-02-24T09:22:24;6.50;99.90
11838;DHT22;5978;51.020;6.764;2023-02-24T09:27:52;6.60;99.90
11838;DHT22;5978;51.020;6.764;2023-02-24T09:30:37;6.60;99.90
11838;DHT22;5978;51.020;6.764;2023-02-24T09:33:36;6.70;99.90
11838;DHT22;5978;51.020;6.764;2023-02-24T09:36:10;6.70;99.90
11838;DHT22;5978;51.020;6.764;2023-02-24T09:38:49;6.90;99.90
11838;DHT22;5978;51.020;6.764;2023-02-24T09:44:38;6.80;99.90
11838;DHT22;5978;51.020;6.764;2023-02-24T09:47:14;6.90;99.90
11838;DHT22;5978;51.020;6.764;2023-02-24T09:49:57;6.90;99.90
11838;DHT22;5978;51.020;6.764;2023-02-24T09:52:27;7.00;99.90
11838;DHT22;5978;51.020;6.764;2023-02-24T09:55:40;6.90;99.90
11838;DHT22;5978;51.020;6.764;2023-02-24T10:01:36;7.00;99.90
11838;DHT22;5978;51.020;6.764;2023-02-24T10:09:54;7.30;99.90
11838;DHT22;5978;51.020;6.764;2023-02-24T10:12:36;7.20;99.90
11838;DHT22;5978;51.020;6.764;2023-02-24T10:15:14;7.30;99.90
11838;DHT22;5978;51.020;6.764;2023-02-24T10:20:57;7.30;99.90
11838;DHT22;5978;51.020;6.764;2023-02-24T10:23:45;7.30;99.90
11838;DHT22;5978;51.020;6.764;2023-02-24T10:26:25;7.10;99.90
11838;DHT22;5978;51.020;6.764;2023-02-24T10:29:22;6.90;99.90
11838;DHT22;5978;51.020;6.764;2023-02-24T10:32:17;6.90;99.90
11838;DHT22;5978;51.020;6.764;2023-02-24T10:34:51;6.90;99.90
11838;DHT22;5978;51.020;6.764;2023-02-24T10:37:21;6.80;99.90
11838;DHT22;5978;51.020;6.764;2023-02-24T10:39:49;6.80;99.90
11838;DHT22;5978;51.020;6.764;2023-02-24T10:42:26;6.50;99.90
11838;DHT22;5978;51.020;6.764;2023-02-24T10:45:25;6.60;99.90
11838;DHT22;5978;51.020;6.764;2023-02-24T10:47:52;6.50;99.90
11838;DHT22;5978;51.020;6.764;2023-02-24T10:53:11;6.40;99.90
11838;DHT22;5978;51.020;6.764;2023-02-24T10:55:54;6.40;99.90
11838;DHT22;5978;51.020;6.764;2023-02-24T10:58:45;6.40;99.90
11838;DHT22;5978;51.020;6.764;2023-02-24T11:01:18;6.40;99.90
11838;DHT22;5978;51.020;6.764;2023-02-24T11:04:13;6.50;99.90
11838;DHT22;5978;51.020;6.764;2023-02-24T11:07:04;6.40;99.90
11838;DHT22;5978;51.020;6.764;2023-02-24T11:09:37;6.40;99.90
11838;DHT22;5978;51.020;6.764;2023-02-24T11:12:23;6.40;99.90
11838;DHT22;5978;51.020;6.764;2023-02-24T11:15:20;6.30;99.90
11838;DHT22;5978;51.020;6.764;2023-02-24T11:18:05;6.20;99.90
11838;DHT22;5978;51.020;6.764;2023-02-24T11:20:36;6.30;99.90
11838;DHT22;5978;51.020;6.764;2023-02-24T11:23:05;6.40;99.90
11838;DHT22;5978;51.020;6.764;2023-02-24T11:25:41;6.50;99.90
11838;DHT22;5978;51.020;6.764;2023-02-24T11:39:38;6.10;99.90
11838;DHT22;5978;51.020;6.764;2023-02-24T11:42:11;6.00;99.90
11838;DHT22;5978;51.020;6.764;2023-02-24T11:47:52;6.00;99.90
11838;DHT22;5978;51.020;6.764;2023-02-24T11:50:38;6.00;99.90
11838;DHT22;5978;51.020;6.764;2023-02-24T11:53:34;6.10;99.90
11838;DHT22;5978;51.020;6.764;2023-02-24T12:09:21;6.00;99.90
11838;DHT22;5978;51.020;6.764;2023-02-24T12:11:56;6.00;99.90
11838;DHT22;5978;51.020;6.764;2023-02-24T12:20:08;6.10;99.90
11838;DHT22;5978;51.020;6.764;2023-02-24T12:22:48;6.20;99.90
11838;DHT22;5978;51.020;6.764;2023-02-24T12:25:18;6.10;99.90
11838;DHT22;5978;51.020;6.764;2023-02-24T12:39:15;5.70;99.90
11838;DHT22;5978;51.020;6.764;2023-02-24T12:41:54;5.70;99.90
11838;DHT22;5978;51.020;6.764;2023-02-24T12:44:34;5.70;99.90
11838;DHT22;5978;51.020;6.764;2023-02-24T12:47:09;5.80;99.90
11838;DHT22;5978;51.020;6.764;2023-02-24T12:55:10;5.60;99.90
11838;DHT22;5978;51.020;6.764;2023-02-24T12:58:03;5.60;99.90
11838;DHT22;5978;51.020;6.764;2023-02-24T13:01:19;5.60;99.90
11838;DHT22;5978;51.020;6.764;2023-02-24T13:14:20;5.50;99.90
11838;DHT22;5978;51.020;6.764;2023-02-24T13:16:46;5.50;99.90
11838;DHT22;5978;51.020;6.764;2023-02-24T13:19:42;5.50;99.90
11838;DHT22;5978;51.020;6.764;2023-02-24T13:24:41;5.50;99.90
11838;DHT22;5978;51.020;6.764;2023-02-24T13:34:48;5.40;99.90
11838;DHT22;5978;51.020;6.764;2023-02-24T13:37:35;5.30;99.90
11838;DHT22;5978;51.020;6.764;2023-02-24T13:42:41;5.50;99.90
11838;DHT22;5978;51.020;6.764;2023-02-24T14:01:07;5.80;99.90
11838;DHT22;5978;51.020;6.764;2023-02-24T14:03:34;5.70;99.90
11838;DHT22;5978;51.020;6.764;2023-02-24T14:06:00;5.80;99.90
11838;DHT22;5978;51.020;6.764;2023-02-24T14:11:01;5.50;99.90
11838;DHT22;5978;51.020;6.764;2023-02-24T14:13:31;5.60;99.90
11838;DHT22;5978;51.020;6.764;2023-02-24T14:16:00;5.50;99.90
11838;DHT22;5978;51.020;6.764;2023-02-24T14:18:27;5.60;99.90
11838;DHT22;5978;51.020;6.764;2023-02-24T14:20:55;5.70;99.90
11838;DHT22;5978;51.020;6.764;2023-02-24T14:23:26;5.70;99.90
11838;DHT22;5978;51.020;6.764;2023-02-24T14:26:04;5.70;99.90
11838;DHT22;5978;51.020;6.764;2023-02-24T14:28:34;5.60;99.90
11838;DHT22;5978;51.020;6.764;2023-02-24T14:31:12;5.50;99.90
11838;DHT22;5978;51.020;6.764;2023-02-24T14:33:40;5.50;99.90
11838;DHT22;5978;51.020;6.764;2023-02-24T14:36:17;5.40;99.90
11838;DHT22;5978;51.020;6.764;2023-02-24T14:38:43;5.50;99.90
11838;DHT22;5978;51.020;6.764;2023-02-24T14:41:21;5.40;99.90
11838;DHT22;5978;51.020;6.764;2023-02-24T14:43:47;5.50;99.90
11838;DHT22;5978;51.020;6.764;2023-02-24T14:46:12;5.50;99.90
11838;DHT22;5978;51.020;6.764;2023-02-24T14:48:38;5.50;99.90
11838;DHT22;5978;51.020;6.764;2023-02-24T14:51:10;5.50;99.90
11838;DHT22;5978;51.020;6.764;2023-02-24T14:53:46;5.50;99.90
11838;DHT22;5978;51.020;6.764;2023-02-24T14:56:13;5.50;99.90
11838;DHT22;5978;51.020;6.764;2023-02-24T14:58:51;5.50;99.90
11838;DHT22;5978;51.020;6.764;2023-02-24T15:01:32;5.50;99.90
11838;DHT22;5978;51.020;6.764;2023-02-24T15:04:10;5.50;99.90
11838;DHT22;5978;51.020;6.764;2023-02-24T15:06:39;5.50;99.90
11838;DHT22;5978;51.020;6.764;2023-02-24T15:09:12;5.40;99.90
11838;DHT22;5978;51.020;6.764;2023-02-24T15:11:38;5.50;99.90
11838;DHT22;5978;51.020;6.764;2023-02-24T15:14:20;5.50;99.90
11838;DHT22;5978;51.020;6.764;2023-02-24T15:16:49;5.50;99.90
11838;DHT22;5978;51.020;6.764;2023-02-24T15:19:38;5.50;99.90
11838;DHT22;5978;51.020;6.764;2023-02-24T15:24:53;5.60;99.90
11838;DHT22;5978;51.020;6.764;2023-02-24T15:27:23;5.60;99.90
11838;DHT22;5978;51.020;6.764;2023-02-24T15:30:03;5.60;99.90
11838;DHT22;5978;51.020;6.764;2023-02-24T15:32:31;5.50;99.90
11838;DHT22;5978;51.020;6.764;2023-02-24T15:34:57;5.50;99.90
11838;DHT22;5978;51.020;6.764;2023-02-24T15:37:25;5.50;99.90
11838;DHT22;5978;51.020;6.764;2023-02-24T15:40:05;5.40;99.90
11838;DHT22;5978;51.020;6.764;2023-02-24T15:42:33;5.50;99.90
11838;DHT22;5978;51.020;6.764;2023-02-24T15:47:51;5.50;99.90
11838;DHT22;5978;51.020;6.764;2023-02-24T15:50:22;5.50;99.90
11838;DHT22;5978;51.020;6.764;2023-02-24T15:53:06;5.50;99.90
11838;DHT22;5978;51.020;6.764;2023-02-24T15:56:11;5.60;99.90
11838;DHT22;5978;51.020;6.764;2023-02-24T15:58:37;5.60;99.90
11838;DHT22;5978;51.020;6.764;2023-02-24T16:01:07;5.50;99.90
11838;DHT22;5978;51.020;6.764;2023-02-24T16:03:33;5.50;99.90
11838;DHT22;5978;51.020;6.764;2023-02-24T16:05:59;5.50;99.90
11838;DHT22;5978;51.020;6.764;2023-02-24T16:08:24;5.60;99.90
11838;DHT22;5978;51.020;6.764;2023-02-24T16:10:50;5.60;99.90
11838;DHT22;5978;51.020;6.764;2023-02-24T16:13:20;5.70;99.90
11838;DHT22;5978;51.020;6.764;2023-02-24T16:15:47;5.70;99.90
11838;DHT22;5978;51.020;6.764;2023-02-24T16:18:17;5.70;99.90
11838;DHT22;5978;51.020;6.764;2023-02-24T16:20:44;5.70;99.90
11838;DHT22;5978;51.020;6.764;2023-02-24T16:23:13;5.70;99.90
11838;DHT22;5978;51.020;6.764;2023-02-24T16:25:41;5.60;99.90
11838;DHT22;5978;51.020;6.764;2023-02-24T16:28:18;5.80;99.90
11838;DHT22;5978;51.020;6.764;2023-02-24T16:30:45;5.70;99.90
11838;DHT22;5978;51.020;6.764;2023-02-24T16:33:12;5.80;99.90
11838;DHT22;5978;51.020;6.764;2023-02-24T16:35:38;5.80;99.90
11838;DHT22;5978;51.020;6.764;2023-02-24T16:38:08;5.80;99.90
11838;DHT22;5978;51.020;6.764;2023-02-24T16:40:41;5.80;99.90
11838;DHT22;5978;51.020;6.764;2023-02-24T16:43:07;5.80;99.90
11838;DHT22;5978;51.020;6.764;2023-02-24T16:45:33;5.80;99.90
11838;DHT22;5978;51.020;6.764;2023-02-24T16:48:04;5.70;99.90
11838;DHT22;5978;51.020;6.764;2023-02-24T16:50:32;5.70;99.90
11838;DHT22;5978;51.020;6.764;2023-02-24T16:52:59;5.80;99.90
11838;DHT22;5978;51.020;6.764;2023-02-24T16:55:25;5.80;99.90
11838;DHT22;5978;51.020;6.764;2023-02-24T16:57:50;5.80;99.90
11838;DHT22;5978;51.020;6.764;2023-02-24T17:00:17;5.80;99.90
11838;DHT22;5978;51.020;6.764;2023-02-24T17:02:46;5.90;99.90
11838;DHT22;5978;51.020;6.764;2023-02-24T17:05:22;5.90;99.90
11838;DHT22;5978;51.020;6.764;2023-02-24T17:07:50;5.90;99.90
11838;DHT22;5978;51.020;6.764;2023-02-24T17:10:16;5.80;99.90
11838;DHT22;5978;51.020;6.764;2023-02-24T17:12:48;5.80;99.90
11838;DHT22;5978;51.020;6.764;2023-02-24T17:15:19;5.80;99.90
11838;DHT22;5978;51.020;6.764;2023-02-24T17:17:45;5.80;99.90
11838;DHT22;5978;51.020;6.764;2023-02-24T17:20:13;5.80;99.90
11838;DHT22;5978;51.020;6.764;2023-02-24T17:22:41;5.80;99.90
11838;DHT22;5978;51.020;6.764;2023-02-24T17:25:09;5.80;99.90
11838;DHT22;5978;51.020;6.764;2023-02-24T17:27:36;5.90;99.90
11838;DHT22;5978;51.020;6.764;2023-02-24T17:30:02;5.90;99.90
11838;DHT22;5978;51.020;6.764;2023-02-24T17:32:27;5.90;99.90
11838;DHT22;5978;51.020;6.764;2023-02-24T17:34:53;5.90;99.90
11838;DHT22;5978;51.020;6.764;2023-02-24T17:37:19;5.90;99.90
11838;DHT22;5978;51.020;6.764;2023-02-24T17:39:45;5.90;99.90
11838;DHT22;5978;51.020;6.764;2023-02-24T17:42:10;5.80;99.90
11838;DHT22;5978;51.020;6.764;2023-02-24T17:44:37;5.80;99.90
11838;DHT22;5978;51.020;6.764;2023-02-24T17:47:02;5.80;99.90
11838;DHT22;5978;51.020;6.764;2023-02-24T17:49:28;5.80;99.90
11838;DHT22;5978;51.020;6.764;2023-02-24T17:51:54;5.80;99.90
11838;DHT22;5978;51.020;6.764;2023-02-24T17:54:19;5.80;99.90
11838;DHT22;5978;51.020;6.764;2023-02-24T17:56:45;5.80;99.90
11838;DHT22;5978;51.020;6.764;2023-02-24T17:59:10;5.70;99.90
11838;DHT22;5978;51.020;6.764;2023-02-24T18:01:36;5.70;99.90
11838;DHT22;5978;51.020;6.764;2023-02-24T18:04:01;5.60;99.90
11838;DHT22;5978;51.020;6.764;2023-02-24T18:06:27;5.60;99.90
11838;DHT22;5978;51.020;6.764;2023-02-24T18:08:53;5.60;99.90
11838;DHT22;5978;51.020;6.764;2023-02-24T18:11:19;5.60;99.90
11838;DHT22;5978;51.020;6.764;2023-02-24T18:13:45;5.70;99.90
11838;DHT22;5978;51.020;6.764;2023-02-24T18:16:13;5.80;99.90
11838;DHT22;5978;51.020;6.764;2023-02-24T18:18:40;5.80;99.90
11838;DHT22;5978;51.020;6.764;2023-02-24T18:21:07;5.90;99.90
11838;DHT22;5978;51.020;6.764;2023-02-24T18:23:34;5.90;99.90
11838;DHT22;5978;51.020;6.764;2023-02-24T18:26:05;6.00;99.90
11838;DHT22;5978;51.020;6.764;2023-02-24T18:28:31;6.10;99.90
11838;DHT22;5978;51.020;6.764;2023-02-24T18:30:58;6.10;99.90
11838;DHT22;5978;51.020;6.764;2023-02-24T18:33:25;6.20;99.90
11838;DHT22;5978;51.020;6.764;2023-02-24T18:36:09;6.20;99.90
11838;DHT22;5978;51.020;6.764;2023-02-24T18:38:35;6.10;99.90
11838;DHT22;5978;51.020;6.764;2023-02-24T18:41:04;6.10;99.90
11838;DHT22;5978;51.020;6.764;2023-02-24T18:43:31;6.00;99.90
11838;DHT22;5978;51.020;6.764;2023-02-24T18:45:58;6.00;99.90
11838;DHT22;5978;51.020;6.764;2023-02-24T18:48:24;5.90;99.90
11838;DHT22;5978;51.020;6.764;2023-02-24T18:50:52;5.90;99.90
11838;DHT22;5978;51.020;6.764;2023-02-24T18:53:18;6.00;99.90
11838;DHT22;5978;51.020;6.764;2023-02-24T18:55:44;6.00;99.90
11838;DHT22;5978;51.020;6.764;2023-02-24T18:58:09;6.00;99.90
11838;DHT22;5978;51.020;6.764;2023-02-24T19:00:35;6.00;99.90
11838;DHT22;5978;51.020;6.764;2023-02-24T19:03:00;6.00;99.90
11838;DHT22;5978;51.020;6.764;2023-02-24T19:05:26;6.00;99.90
11838;DHT22;5978;51.020;6.764;2023-02-24T19:07:52;6.00;99.90